Time;durP1;ratioP1;P1;durP2;ratioP2;P2;SDS_P1;SDS_P2;PMS_P1;PMS_P2;Temp;Humidity;BMP_temperature;BMP_pressure;BME280_temperature;BME280_humidity;BME280_pressure;Samples;Min_cycle;Max_cycle;Signal;HPM_P1;HPM_P2
2024/01/09 00:00:34;;;;;;;0.00;0.00;;;-5.70;99.90;;;;;;5002651;28;20037;-65
2024/01/09 00:03:00;;;;;;;0.00;0.00;;;-5.80;99.90;;;;;;4997383;28;20026;-66
2024/01/09 00:05:26;;;;;;;0.00;0.00;;;-5.80;99.90;;;;;;4998118;28;20133;-65
2024/01/09 00:07:51;;;;;;;0.00;0.00;;;-5.80;99.90;;;;;;4998780;28;20630;-65
2024/01/09 00:10:17;;;;;;;0.00;0.00;;;-5.80;99.90;;;;;;5001676;28;20080;-65
2024/01/09 00:12:43;;;;;;;0.00;0.00;;;-5.80;99.90;;;;;;5003382;28;20018;-65
2024/01/09 00:15:10;;;;;;;0.20;0.20;;;-5.80;99.90;;;;;;4992624;28;20145;-65
2024/01/09 00:17:36;;;;;;;;;;;-5.80;99.90;;;;;;4993320;28;20355;-65
2024/01/09 00:20:03;;;;;;;0.00;0.00;;;-5.90;99.90;;;;;;5013545;28;19923;-66
2024/01/09 00:22:28;;;;;;;;;;;-5.90;99.90;;;;;;5017608;28;20759;-66
2024/01/09 00:24:54;;;;;;;0.00;0.00;;;-5.80;99.90;;;;;;4988525;28;19921;-66
2024/01/09 00:27:19;;;;;;;0.00;0.00;;;-5.80;99.90;;;;;;4995954;28;20523;-65
2024/01/09 00:29:45;;;;;;;0.00;0.00;;;-5.90;99.90;;;;;;4996891;28;20052;-65
2024/01/09 00:32:11;;;;;;;0.00;0.00;;;-5.90;99.90;;;;;;4999724;28;20030;-66
2024/01/09 00:34:36;;;;;;;0.00;0.00;;;-5.90;99.90;;;;;;5024762;28;20083;-65
2024/01/09 00:37:02;;;;;;;0.00;0.00;;;-5.80;99.90;;;;;;4996574;28;20474;-65
2024/01/09 00:39:28;;;;;;;0.00;0.00;;;-5.80;99.90;;;;;;4996321;28;20022;-66
2024/01/09 00:41:53;;;;;;;0.00;0.00;;;-5.80;99.90;;;;;;4996653;28;20037;-65
2024/01/09 00:44:19;;;;;;;0.00;0.00;;;-5.80;99.90;;;;;;4999096;28;20038;-67
2024/01/09 00:46:44;;;;;;;0.00;0.00;;;-5.80;99.90;;;;;;4999733;28;20029;-65
2024/01/09 00:49:10;;;;;;;0.00;0.00;;;-5.80;99.90;;;;;;4999226;28;20137;-66
2024/01/09 00:51:36;;;;;;;0.00;0.00;;;-5.80;99.90;;;;;;4992963;28;20117;-65
2024/01/09 00:54:02;;;;;;;0.00;0.00;;;-5.70;99.90;;;;;;4993837;28;20030;-65
2024/01/09 00:56:28;;;;;;;0.00;0.00;;;-5.70;99.90;;;;;;4995729;28;20714;-65
2024/01/09 00:58:53;;;;;;;0.00;0.00;;;-5.70;99.90;;;;;;4996412;28;20030;-65
2024/01/09 01:01:19;;;;;;;0.00;0.00;;;-5.70;99.90;;;;;;4994783;28;20818;-65
2024/01/09 01:03:45;;;;;;;0.00;0.00;;;-5.80;99.90;;;;;;4997422;28;20053;-66
2024/01/09 01:06:10;;;;;;;0.00;0.00;;;-5.80;99.90;;;;;;4991606;28;20034;-66
2024/01/09 01:08:37;;;;;;;0.00;0.00;;;-5.80;99.90;;;;;;5027106;28;20656;-65
2024/01/09 01:11:04;;;;;;;1.88;0.55;;;-5.90;99.90;;;;;;4996819;28;20054;-65
2024/01/09 01:13:30;;;;;;;0.00;0.00;;;-5.80;99.90;;;;;;5000597;28;20111;-66
2024/01/09 01:15:55;;;;;;;0.00;0.00;;;-5.90;99.90;;;;;;4996113;28;20022;-65
2024/01/09 01:18:21;;;;;;;0.00;0.00;;;-5.90;99.90;;;;;;5001886;28;20048;-65
2024/01/09 01:20:47;;;;;;;0.00;0.00;;;-6.00;99.90;;;;;;4998146;28;20038;-66
2024/01/09 01:23:14;;;;;;;0.00;0.00;;;-6.10;99.90;;;;;;4990311;28;20852;-65
2024/01/09 01:25:40;;;;;;;0.00;0.00;;;-6.10;99.90;;;;;;4999418;28;20402;-66
2024/01/09 01:28:06;;;;;;;0.00;0.00;;;-6.10;99.90;;;;;;5021251;28;20088;-66
2024/01/09 01:30:32;;;;;;;0.00;0.00;;;-6.10;99.90;;;;;;5000715;28;20033;-65
2024/01/09 01:32:58;;;;;;;0.00;0.00;;;-6.20;99.90;;;;;;4994396;28;20030;-65
2024/01/09 01:35:25;;;;;;;0.00;0.00;;;-6.20;99.90;;;;;;5000342;28;20026;-65
2024/01/09 01:37:51;;;;;;;;;;;-6.30;99.90;;;;;;4991976;28;20026;-66
2024/01/09 01:40:17;;;;;;;0.00;0.00;;;-6.30;99.90;;;;;;5001108;28;19997;-65
2024/01/09 01:42:43;;;;;;;0.00;0.00;;;-6.40;99.90;;;;;;5003355;28;20117;-65
2024/01/09 01:45:16;;;;;;;0.00;0.00;;;-6.40;99.90;;;;;;5000098;28;20037;-66
2024/01/09 01:47:46;;;;;;;0.00;0.00;;;-6.40;99.90;;;;;;4996267;28;20034;-65
2024/01/09 01:50:13;;;;;;;0.00;0.00;;;-6.40;99.90;;;;;;4999781;28;20359;-65
2024/01/09 01:52:41;;;;;;;0.00;0.00;;;-6.50;99.90;;;;;;5001092;28;20033;-66
2024/01/09 01:55:09;;;;;;;0.00;0.00;;;-6.50;99.90;;;;;;4999776;28;20025;-65
2024/01/09 01:57:36;;;;;;;0.00;0.00;;;-6.50;99.90;;;;;;5001400;28;20036;-66
2024/01/09 02:00:02;;;;;;;0.00;0.00;;;-6.50;99.90;;;;;;4992309;28;20026;-66
2024/01/09 02:02:31;;;;;;;0.05;0.05;;;-6.50;99.90;;;;;;5027269;28;20026;-65
2024/01/09 02:04:58;;;;;;;0.00;0.00;;;-6.60;99.90;;;;;;5001479;28;20467;-65
2024/01/09 02:07:26;;;;;;;0.00;0.00;;;-6.60;99.90;;;;;;4998452;28;20549;-66
2024/01/09 02:09:53;;;;;;;0.00;0.00;;;-6.60;99.90;;;;;;4996167;28;20466;-66
2024/01/09 02:12:21;;;;;;;0.00;0.00;;;-6.60;99.90;;;;;;4999864;28;20031;-66
2024/01/09 02:14:47;;;;;;;0.00;0.00;;;-6.70;99.90;;;;;;5000984;28;20073;-65
2024/01/09 02:17:13;;;;;;;0.00;0.00;;;-6.70;99.90;;;;;;4996518;28;20050;-65
2024/01/09 02:19:39;;;;;;;0.00;0.00;;;-6.60;99.90;;;;;;4998160;28;20272;-66
2024/01/09 02:22:05;;;;;;;5.53;0.87;;;-6.60;99.90;;;;;;4996884;28;20029;-65
2024/01/09 02:24:30;;;;;;;0.00;0.00;;;-6.60;99.90;;;;;;4995588;28;20084;-65
2024/01/09 02:27:31;;;;;;;0.00;0.00;;;-6.60;99.90;;;;;;4998010;28;20030;-65
2024/01/09 02:29:57;;;;;;;0.00;0.00;;;-6.60;99.90;;;;;;4994736;28;20041;-65
2024/01/09 02:32:24;;;;;;;0.10;0.10;;;-6.60;99.90;;;;;;4995971;28;20493;-65
2024/01/09 02:34:51;;;;;;;0.00;0.00;;;-6.70;99.90;;;;;;5002917;28;20482;-65
2024/01/09 02:37:17;;;;;;;0.00;0.00;;;-6.60;99.90;;;;;;4995435;28;20025;-66
2024/01/09 02:39:42;;;;;;;0.00;0.00;;;-6.70;99.90;;;;;;4997974;28;20026;-65
2024/01/09 02:42:09;;;;;;;0.00;0.00;;;-6.60;99.90;;;;;;4997946;28;20033;-66
2024/01/09 02:44:35;;;;;;;;;;;-6.70;99.90;;;;;;4994216;28;20026;-66
2024/01/09 02:47:00;;;;;;;0.00;0.00;;;-6.70;99.90;;;;;;4999213;28;20325;-65
2024/01/09 02:49:26;;;;;;;0.00;0.00;;;-6.70;99.90;;;;;;4991188;28;20537;-65
2024/01/09 02:51:52;;;;;;;0.00;0.00;;;-6.80;99.90;;;;;;4997183;28;20477;-65
2024/01/09 02:54:19;;;;;;;0.55;0.55;;;-6.80;99.90;;;;;;4998292;28;20028;-67
2024/01/09 02:56:44;;;;;;;;;;;-6.80;99.90;;;;;;4998992;28;20119;-66
2024/01/09 02:59:10;;;;;;;0.00;0.00;;;-6.80;99.90;;;;;;4997836;28;20573;-66
2024/01/09 03:01:36;;;;;;;0.00;0.00;;;-6.90;99.90;;;;;;5001014;28;20409;-65
2024/01/09 03:04:01;;;;;;;0.00;0.00;;;-6.90;99.90;;;;;;4999662;28;20030;-65
2024/01/09 03:06:27;;;;;;;0.00;0.00;;;-6.90;99.90;;;;;;4994246;28;20117;-65
2024/01/09 03:08:53;;;;;;;0.00;0.00;;;-6.90;99.90;;;;;;4997364;28;20038;-65
2024/01/09 03:11:18;;;;;;;0.00;0.00;;;-6.80;99.90;;;;;;5002225;28;20025;-67
2024/01/09 03:13:44;;;;;;;0.00;0.00;;;-6.90;99.90;;;;;;4999643;28;20024;-66
2024/01/09 03:16:11;;;;;;;0.00;0.00;;;-6.80;99.90;;;;;;4998970;28;20017;-65
2024/01/09 03:18:37;;;;;;;0.00;0.00;;;-6.80;99.90;;;;;;4994821;28;20049;-65
2024/01/09 03:21:03;;;;;;;0.00;0.00;;;-6.80;99.90;;;;;;4998189;28;20034;-65
2024/01/09 03:23:28;;;;;;;0.00;0.00;;;-6.80;99.90;;;;;;4994887;28;20311;-66
2024/01/09 03:25:54;;;;;;;0.00;0.00;;;-6.80;99.90;;;;;;4998371;28;20069;-65
2024/01/09 03:28:20;;;;;;;0.00;0.00;;;-6.80;99.90;;;;;;4997223;28;20129;-66
2024/01/09 03:30:45;;;;;;;0.00;0.00;;;-6.80;99.90;;;;;;5004499;28;20513;-65
2024/01/09 03:33:11;;;;;;;0.00;0.00;;;-6.90;99.90;;;;;;4998850;28;20186;-65
2024/01/09 03:35:36;;;;;;;0.00;0.00;;;-6.80;99.90;;;;;;4992803;28;20045;-65
2024/01/09 03:38:03;;;;;;;0.00;0.00;;;-6.90;99.90;;;;;;4997776;28;20041;-65
2024/01/09 03:40:29;;;;;;;;;;;-6.90;99.90;;;;;;5000110;28;20038;-66
2024/01/09 03:42:54;;;;;;;0.00;0.00;;;-6.80;99.90;;;;;;4996500;28;19909;-65
2024/01/09 03:45:20;;;;;;;0.00;0.00;;;-6.80;99.90;;;;;;4999661;28;20058;-67
2024/01/09 03:47:46;;;;;;;0.00;0.00;;;-6.90;99.90;;;;;;5002292;28;20028;-65
2024/01/09 03:50:11;;;;;;;0.00;0.00;;;-6.90;99.90;;;;;;4996392;28;20718;-65
2024/01/09 03:52:37;;;;;;;0.00;0.00;;;-6.90;99.90;;;;;;4993443;28;20041;-65
2024/01/09 03:55:03;;;;;;;0.00;0.00;;;-6.90;99.90;;;;;;4996551;28;20072;-65
2024/01/09 03:57:28;;;;;;;0.00;0.00;;;-7.00;99.90;;;;;;5009264;28;20032;-66
2024/01/09 03:59:54;;;;;;;0.00;0.00;;;-7.00;99.90;;;;;;5003309;28;20273;-65
2024/01/09 04:02:20;;;;;;;0.00;0.00;;;-7.00;99.90;;;;;;4997260;28;20100;-65
2024/01/09 04:04:46;;;;;;;0.00;0.00;;;-7.00;99.90;;;;;;5017507;28;20034;-65
2024/01/09 04:07:12;;;;;;;0.00;0.00;;;-7.10;99.90;;;;;;4996947;28;20408;-65
2024/01/09 04:09:39;;;;;;;0.00;0.00;;;-7.10;99.90;;;;;;4996769;28;20053;-65
2024/01/09 04:12:05;;;;;;;0.00;0.00;;;-7.00;99.90;;;;;;5026283;28;20034;-65
2024/01/09 04:14:30;;;;;;;0.00;0.00;;;-7.00;99.90;;;;;;4994107;28;20141;-67
2024/01/09 04:16:56;;;;;;;0.00;0.00;;;-7.10;99.90;;;;;;5000910;28;20485;-65
2024/01/09 04:19:22;;;;;;;0.00;0.00;;;-7.10;99.90;;;;;;4996689;28;20075;-65
2024/01/09 04:21:48;;;;;;;0.00;0.00;;;-7.10;99.90;;;;;;4996362;28;20269;-66
2024/01/09 04:24:13;;;;;;;0.00;0.00;;;-7.10;99.90;;;;;;5015801;28;20151;-65
2024/01/09 04:26:39;;;;;;;0.00;0.00;;;-7.10;99.90;;;;;;4994551;28;20105;-66
2024/01/09 04:29:05;;;;;;;0.00;0.00;;;-7.20;99.90;;;;;;4997181;28;20030;-65
2024/01/09 04:31:31;;;;;;;0.00;0.00;;;-7.10;99.90;;;;;;4998405;28;20468;-65
2024/01/09 04:33:56;;;;;;;0.00;0.00;;;-7.10;99.90;;;;;;4997153;28;20033;-65
2024/01/09 04:36:22;;;;;;;0.00;0.00;;;-7.20;99.90;;;;;;4998724;28;20581;-65
2024/01/09 04:38:48;;;;;;;0.00;0.00;;;-7.20;99.90;;;;;;4998801;28;20024;-65
2024/01/09 04:41:17;;;;;;;0.00;0.00;;;-7.20;99.90;;;;;;4994456;28;20058;-66
2024/01/09 04:43:46;;;;;;;0.00;0.00;;;-7.20;99.90;;;;;;4997437;28;20022;-65
2024/01/09 04:46:12;;;;;;;0.00;0.00;;;-7.30;99.90;;;;;;4996963;28;20037;-65
2024/01/09 04:48:37;;;;;;;0.00;0.00;;;-7.30;99.90;;;;;;4998073;28;20720;-65
2024/01/09 04:51:03;;;;;;;0.00;0.00;;;-7.30;99.90;;;;;;4998435;28;20033;-66
2024/01/09 04:53:29;;;;;;;0.00;0.00;;;-7.30;99.90;;;;;;4996471;28;20033;-65
2024/01/09 04:55:55;;;;;;;0.00;0.00;;;-7.20;99.90;;;;;;4997106;28;20033;-65
2024/01/09 04:58:20;;;;;;;0.00;0.00;;;-7.30;99.90;;;;;;4996444;28;20041;-65
2024/01/09 05:00:47;;;;;;;0.00;0.00;;;-7.20;99.90;;;;;;4999745;28;20030;-66
2024/01/09 05:03:13;;;;;;;0.00;0.00;;;-7.20;99.90;;;;;;4996419;28;20101;-65
2024/01/09 05:05:39;;;;;;;0.00;0.00;;;-7.30;99.90;;;;;;4994000;28;20176;-65
2024/01/09 05:08:05;;;;;;;0.00;0.00;;;-7.30;99.90;;;;;;4996183;28;20045;-64
2024/01/09 05:10:31;;;;;;;0.00;0.00;;;-7.30;99.90;;;;;;4993981;28;20038;-65
2024/01/09 05:12:57;;;;;;;0.00;0.00;;;-7.30;99.90;;;;;;4995515;28;20561;-65
2024/01/09 05:15:23;;;;;;;0.00;0.00;;;-7.30;99.90;;;;;;4997184;28;20030;-65
2024/01/09 05:17:49;;;;;;;0.00;0.00;;;-7.30;99.90;;;;;;5001722;28;20026;-65
2024/01/09 05:20:14;;;;;;;0.00;0.00;;;-7.30;99.90;;;;;;5000794;28;20021;-65
2024/01/09 05:22:40;;;;;;;0.00;0.00;;;-7.30;99.90;;;;;;4995424;28;20107;-65
2024/01/09 05:25:08;;;;;;;0.00;0.00;;;-7.20;99.90;;;;;;4999671;28;20096;-65
2024/01/09 05:27:34;;;;;;;0.00;0.00;;;-7.30;99.90;;;;;;4999770;28;20117;-66
2024/01/09 05:30:00;;;;;;;0.00;0.00;;;-7.30;99.90;;;;;;5000373;28;20450;-64
2024/01/09 05:32:27;;;;;;;0.00;0.00;;;-7.30;99.90;;;;;;5002243;28;20044;-65
2024/01/09 05:34:52;;;;;;;0.00;0.00;;;-7.30;99.90;;;;;;4999875;28;20029;-65
2024/01/09 05:37:18;;;;;;;0.00;0.00;;;-7.30;99.90;;;;;;4999437;28;20026;-65
2024/01/09 05:39:45;;;;;;;0.00;0.00;;;-7.40;99.90;;;;;;4999612;28;20018;-65
2024/01/09 05:42:11;;;;;;;0.00;0.00;;;-7.40;99.90;;;;;;4995794;28;20473;-66
2024/01/09 05:44:37;;;;;;;0.28;0.28;;;-7.50;99.90;;;;;;4999451;28;20040;-66
2024/01/09 05:47:03;;;;;;;0.00;0.00;;;-7.40;99.90;;;;;;4999824;28;20034;-66
2024/01/09 05:49:29;;;;;;;0.00;0.00;;;-7.40;99.90;;;;;;4999642;28;20057;-66
2024/01/09 05:51:54;;;;;;;0.00;0.00;;;-7.40;99.90;;;;;;4999208;28;20061;-66
2024/01/09 05:54:21;;;;;;;0.00;0.00;;;-7.40;99.90;;;;;;4998022;28;20112;-68
2024/01/09 05:56:47;;;;;;;;;;;-7.40;99.90;;;;;;4996848;28;20561;-66
2024/01/09 05:59:12;;;;;;;0.00;0.00;;;-7.50;99.90;;;;;;4998209;28;19912;-65
2024/01/09 06:01:38;;;;;;;0.00;0.00;;;-7.50;99.90;;;;;;5030001;28;20029;-66
2024/01/09 06:04:04;;;;;;;0.00;0.00;;;-7.50;99.90;;;;;;4998970;28;20088;-66
2024/01/09 06:06:30;;;;;;;0.00;0.00;;;-7.50;99.90;;;;;;4999157;28;20026;-67
2024/01/09 06:08:56;;;;;;;0.00;0.00;;;-7.60;99.90;;;;;;4999421;28;20117;-66
2024/01/09 06:11:21;;;;;;;0.00;0.00;;;-7.60;99.90;;;;;;4999578;28;20724;-66
2024/01/09 06:13:47;;;;;;;0.00;0.00;;;-7.50;99.90;;;;;;4995661;28;20038;-66
2024/01/09 06:16:14;;;;;;;0.00;0.00;;;-7.50;99.90;;;;;;5028946;28;20429;-65
2024/01/09 06:18:40;;;;;;;;;;;-7.60;99.90;;;;;;4995615;28;20536;-66
2024/01/09 06:21:05;;;;;;;0.00;0.00;;;-7.60;99.90;;;;;;4997464;28;19914;-65
2024/01/09 06:23:31;;;;;;;0.00;0.00;;;-7.60;99.90;;;;;;4998852;28;20106;-65
2024/01/09 06:25:57;;;;;;;0.20;0.20;;;-7.60;99.90;;;;;;4998362;28;20046;-65
2024/01/09 06:28:22;;;;;;;0.00;0.00;;;-7.60;99.90;;;;;;4999324;28;20064;-65
2024/01/09 06:30:48;;;;;;;0.00;0.00;;;-7.50;99.90;;;;;;4995462;28;20109;-66
2024/01/09 06:33:13;;;;;;;0.00;0.00;;;-7.50;99.90;;;;;;4998364;28;20097;-65
2024/01/09 06:35:39;;;;;;;0.00;0.00;;;-7.50;99.90;;;;;;4998831;28;20072;-65
2024/01/09 06:38:05;;;;;;;0.00;0.00;;;-7.50;99.90;;;;;;4995212;28;20018;-65
2024/01/09 06:40:30;;;;;;;0.00;0.00;;;-7.50;99.90;;;;;;4999052;28;20021;-65
2024/01/09 06:42:56;;;;;;;0.00;0.00;;;-7.50;99.90;;;;;;4998434;28;20037;-65
2024/01/09 06:45:22;;;;;;;0.00;0.00;;;-7.60;99.90;;;;;;4996530;28;20050;-65
2024/01/09 06:47:47;;;;;;;0.00;0.00;;;-7.60;99.90;;;;;;4998035;28;20036;-65
2024/01/09 06:50:13;;;;;;;0.00;0.00;;;-7.60;99.90;;;;;;4998334;28;20018;-65
2024/01/09 06:52:39;;;;;;;0.00;0.00;;;-7.50;99.90;;;;;;4995009;28;20807;-65
2024/01/09 06:55:05;;;;;;;0.00;0.00;;;-7.40;99.90;;;;;;5027770;28;20017;-66
2024/01/09 06:57:31;;;;;;;0.00;0.00;;;-7.30;99.90;;;;;;5000660;28;20018;-65
2024/01/09 06:59:56;;;;;;;0.00;0.00;;;-7.30;99.90;;;;;;4998020;28;20441;-66
2024/01/09 07:02:22;;;;;;;0.00;0.00;;;-7.30;99.90;;;;;;4999360;28;20022;-66
2024/01/09 07:04:48;;;;;;;0.00;0.00;;;-7.30;99.90;;;;;;4994055;28;20124;-67
2024/01/09 07:07:13;;;;;;;0.00;0.00;;;-7.30;99.90;;;;;;4998451;28;20080;-65
2024/01/09 07:09:40;;;;;;;0.00;0.00;;;-7.10;99.90;;;;;;4999344;28;20038;-65
2024/01/09 07:12:09;;;;;;;0.00;0.00;;;-6.90;99.90;;;;;;4995142;28;20359;-65
2024/01/09 07:14:37;;;;;;;0.08;0.08;;;-6.70;99.90;;;;;;4998220;28;20026;-65
2024/01/09 07:17:03;;;;;;;0.00;0.00;;;-6.70;99.90;;;;;;4995451;28;20026;-65
2024/01/09 07:19:30;;;;;;;0.00;0.00;;;-6.50;99.90;;;;;;4999316;28;20022;-65
2024/01/09 07:21:56;;;;;;;0.73;0.28;;;-5.80;99.90;;;;;;4998205;28;20038;-65
2024/01/09 07:24:22;;;;;;;0.00;0.00;;;-4.80;99.90;;;;;;4991364;28;20041;-66
2024/01/09 07:26:47;;;;;;;0.00;0.00;;;-3.80;99.90;;;;;;4998438;28;20030;-66
2024/01/09 07:29:16;;;;;;;0.00;0.00;;;-3.00;99.90;;;;;;4996122;28;20076;-66
2024/01/09 07:31:43;;;;;;;0.00;0.00;;;-2.60;99.90;;;;;;5000233;28;20425;-66
2024/01/09 07:34:08;;;;;;;0.00;0.00;;;-1.90;99.50;;;;;;4994361;28;20424;-66
2024/01/09 07:36:35;;;;;;;0.00;0.00;;;-1.50;97.50;;;;;;4998459;28;20042;-66
2024/01/09 07:39:01;;;;;;;0.00;0.00;;;-1.20;96.60;;;;;;4997545;28;20104;-67
2024/01/09 07:41:26;;;;;;;0.00;0.00;;;-0.80;95.70;;;;;;4999329;28;20026;-67
2024/01/09 07:43:53;;;;;;;0.10;0.10;;;-0.70;94.70;;;;;;4998829;28;20036;-63
2024/01/09 07:46:19;;;;;;;0.00;0.00;;;-0.80;93.90;;;;;;5000662;28;20042;-68
2024/01/09 07:48:44;;;;;;;0.00;0.00;;;-1.70;95.30;;;;;;4996057;28;20060;-64
2024/01/09 07:51:10;;;;;;;0.10;0.10;;;-2.20;96.70;;;;;;4999142;28;20049;-64
2024/01/09 07:53:36;;;;;;;0.00;0.00;;;-2.60;96.00;;;;;;5002688;28;20025;-64
2024/01/09 07:56:01;;;;;;;1.70;0.50;;;-2.70;96.40;;;;;;4998676;28;20436;-64
2024/01/09 07:58:27;;;;;;;0.30;0.30;;;-3.10;96.50;;;;;;5023857;28;20037;-65
2024/01/09 08:00:53;;;;;;;0.00;0.00;;;-3.40;97.40;;;;;;5000493;28;20540;-63
2024/01/09 08:03:19;;;;;;;0.00;0.00;;;-4.00;98.20;;;;;;4999714;28;20024;-64
2024/01/09 08:05:45;;;;;;;0.00;0.00;;;-4.10;99.30;;;;;;4999989;28;20018;-64
2024/01/09 08:08:11;;;;;;;0.00;0.00;;;-4.20;99.70;;;;;;4997876;28;21288;-65
2024/01/09 08:10:37;;;;;;;0.00;0.00;;;-4.20;99.90;;;;;;4997794;28;20442;-64
2024/01/09 08:13:03;;;;;;;0.07;0.07;;;-4.30;99.90;;;;;;4997228;28;20116;-64
2024/01/09 08:15:29;;;;;;;0.00;0.00;;;-4.50;99.90;;;;;;4997291;28;20045;-64
2024/01/09 08:17:55;;;;;;;0.00;0.00;;;-4.60;99.90;;;;;;5001015;28;20249;-64
2024/01/09 08:20:20;;;;;;;0.00;0.00;;;-4.40;99.90;;;;;;4994387;28;20025;-64
2024/01/09 08:22:48;;;;;;;0.00;0.00;;;-4.10;99.90;;;;;;4998272;28;20030;-63
2024/01/09 08:25:13;;;;;;;0.00;0.00;;;-3.50;99.90;;;;;;4996300;28;20045;-64
2024/01/09 08:27:39;;;;;;;0.00;0.00;;;-3.00;99.10;;;;;;4993976;28;20037;-64
2024/01/09 08:30:08;;;;;;;0.00;0.00;;;-2.70;98.50;;;;;;4997907;28;20030;-64
2024/01/09 08:32:34;;;;;;;0.00;0.00;;;-2.50;97.90;;;;;;4992754;28;20560;-64
2024/01/09 08:35:00;;;;;;;0.00;0.00;;;-2.00;97.60;;;;;;5000420;28;20121;-65
2024/01/09 08:37:26;;;;;;;0.00;0.00;;;-1.50;96.20;;;;;;4995003;28;20046;-64
2024/01/09 08:39:51;;;;;;;0.00;0.00;;;-1.30;95.70;;;;;;4998159;28;20130;-64
2024/01/09 08:42:17;;;;;;;0.00;0.00;;;-1.40;95.20;;;;;;4991091;28;20032;-64
2024/01/09 08:44:43;;;;;;;0.00;0.00;;;-1.20;95.40;;;;;;4997157;28;20017;-63
2024/01/09 08:47:08;;;;;;;0.00;0.00;;;-1.10;94.70;;;;;;4998218;28;20037;-64
2024/01/09 08:49:35;;;;;;;0.00;0.00;;;-1.60;94.10;;;;;;4997018;28;20030;-64
2024/01/09 08:52:01;;;;;;;0.03;0.03;;;-1.90;95.10;;;;;;5017319;28;20108;-65
2024/01/09 08:54:27;;;;;;;0.00;0.00;;;-2.00;94.90;;;;;;5000548;28;20109;-63
2024/01/09 08:56:52;;;;;;;0.00;0.00;;;-2.10;95.40;;;;;;5002187;28;20030;-64
2024/01/09 08:59:18;;;;;;;0.00;0.00;;;-1.90;95.30;;;;;;5001437;28;20041;-64
2024/01/09 09:01:43;;;;;;;0.40;0.40;;;-1.80;95.00;;;;;;5002334;28;20033;-64
2024/01/09 09:04:09;;;;;;;0.00;0.00;;;-1.80;94.80;;;;;;4997812;28;20075;-64
2024/01/09 09:06:35;;;;;;;0.00;0.00;;;-1.60;95.10;;;;;;5002155;28;20018;-65
2024/01/09 09:09:00;;;;;;;0.00;0.00;;;-1.10;94.80;;;;;;5001983;28;20083;-65
2024/01/09 09:11:26;;;;;;;0.00;0.00;;;-0.10;94.20;;;;;;5001966;28;20034;-64
2024/01/09 09:13:52;;;;;;;0.00;0.00;;;0.80;92.20;;;;;;5001073;28;20018;-65
2024/01/09 09:16:18;;;;;;;0.00;0.00;;;1.90;90.80;;;;;;4997022;28;20023;-64
2024/01/09 09:18:44;;;;;;;0.00;0.00;;;2.70;88.50;;;;;;5002758;28;20026;-65
2024/01/09 09:21:10;;;;;;;0.00;0.00;;;4.10;84.50;;;;;;4995292;28;20045;-64
2024/01/09 09:23:36;;;;;;;0.00;0.00;;;5.40;79.30;;;;;;5001906;28;20030;-64
2024/01/09 09:26:03;;;;;;;0.00;0.00;;;7.10;72.80;;;;;;4997250;28;20273;-66
2024/01/09 09:28:29;;;;;;;0.08;0.08;;;8.20;68.00;;;;;;5000237;28;20064;-64
2024/01/09 09:30:54;;;;;;;0.00;0.00;;;9.70;63.20;;;;;;5000411;28;20116;-65
2024/01/09 09:33:20;;;;;;;0.00;0.00;;;8.90;59.30;;;;;;4998308;28;20529;-65
2024/01/09 09:35:46;;;;;;;0.00;0.00;;;8.20;63.10;;;;;;5000226;28;20357;-64
2024/01/09 09:38:13;;;;;;;0.00;0.00;;;8.20;60.40;;;;;;4996355;28;20429;-64
2024/01/09 09:40:40;;;;;;;0.17;0.17;;;9.50;58.20;;;;;;5001244;28;20112;-64
2024/01/09 09:43:08;;;;;;;0.00;0.00;;;9.90;58.00;;;;;;4995313;28;20033;-64
2024/01/09 09:45:34;;;;;;;0.40;0.40;;;9.90;57.00;;;;;;4999912;28;20030;-63
2024/01/09 09:48:01;;;;;;;0.00;0.00;;;11.30;54.90;;;;;;5005306;28;20508;-64
2024/01/09 09:50:27;;;;;;;0.00;0.00;;;12.30;54.10;;;;;;5002240;28;20041;-62
2024/01/09 09:52:55;;;;;;;1.90;0.28;;;11.70;52.30;;;;;;5000202;28;20115;-62
2024/01/09 09:55:22;;;;;;;0.68;0.25;;;11.60;51.70;;;;;;5000535;28;20030;-62
2024/01/09 09:57:47;;;;;;;0.00;0.00;;;12.40;50.70;;;;;;4996885;28;20042;-61
2024/01/09 10:00:14;;;;;;;0.23;0.23;;;12.50;51.00;;;;;;5001671;28;20437;-63
2024/01/09 10:02:50;;;;;;;0.00;0.00;;;13.50;50.50;;;;;;4998085;28;20747;-62
2024/01/09 10:05:18;;;;;;;0.03;0.03;;;12.70;48.80;;;;;;5001968;28;20033;-64
2024/01/09 10:07:52;;;;;;;0.10;0.10;;;11.80;49.80;;;;;;4995365;28;20030;-64
2024/01/09 10:10:19;;;;;;;0.45;0.28;;;11.70;50.90;;;;;;4998970;28;20431;-66
2024/01/09 10:12:44;;;;;;;;;;;12.80;50.10;;;;;;4999643;28;20064;-66
2024/01/09 10:15:13;;;;;;;0.00;0.00;;;12.80;48.90;;;;;;4999780;28;19963;-64
2024/01/09 10:17:40;;;;;;;0.00;0.00;;;13.60;48.50;;;;;;5001046;28;20030;-64
2024/01/09 10:20:11;;;;;;;0.00;0.00;;;12.30;46.10;;;;;;4995948;28;20558;-64
2024/01/09 10:22:38;;;;;;;0.00;0.00;;;8.20;50.80;;;;;;5000211;28;20032;-65
2024/01/09 10:25:08;;;;;;;0.10;0.10;;;6.30;52.90;;;;;;4998959;28;20036;-66
2024/01/09 10:27:36;;;;;;;0.13;0.13;;;4.50;56.20;;;;;;4996943;28;20033;-66
2024/01/09 10:30:03;;;;;;;0.00;0.00;;;2.90;58.50;;;;;;5003748;28;20032;-65
2024/01/09 10:32:31;;;;;;;0.00;0.00;;;1.70;61.80;;;;;;5000858;28;20038;-65
2024/01/09 10:34:57;;;;;;;0.00;0.00;;;1.10;63.90;;;;;;4998620;28;20033;-65
2024/01/09 10:37:24;;;;;;;0.00;0.00;;;0.80;65.00;;;;;;4996023;28;20501;-65
2024/01/09 10:39:50;;;;;;;0.00;0.00;;;0.50;66.90;;;;;;5003810;28;20516;-64
2024/01/09 10:42:16;;;;;;;0.52;0.52;;;0.20;67.70;;;;;;4997138;28;20038;-65
2024/01/09 10:44:45;;;;;;;0.00;0.00;;;0.00;67.70;;;;;;4998463;28;20096;-64
2024/01/09 10:47:14;;;;;;;0.00;0.00;;;-0.80;70.20;;;;;;5001459;28;20060;-65
2024/01/09 10:49:41;;;;;;;0.00;0.00;;;-1.40;72.20;;;;;;4996091;28;20471;-64
2024/01/09 10:52:14;;;;;;;0.00;0.00;;;-1.40;72.50;;;;;;5014919;28;20088;-65
2024/01/09 10:54:46;;;;;;;0.00;0.00;;;-1.30;73.10;;;;;;4994171;28;20053;-65
2024/01/09 10:57:16;;;;;;;0.98;0.50;;;-1.50;74.40;;;;;;5016356;28;20022;-64
2024/01/09 10:59:46;;;;;;;0.00;0.00;;;-1.30;74.40;;;;;;4996699;28;20112;-65
2024/01/09 11:02:16;;;;;;;0.05;0.05;;;-1.80;73.60;;;;;;5002872;28;20384;-65
2024/01/09 11:04:45;;;;;;;0.47;0.47;;;-2.40;76.80;;;;;;5000125;28;20868;-65
2024/01/09 11:07:15;;;;;;;0.00;0.00;;;-2.60;79.30;;;;;;4999333;28;20033;-65
2024/01/09 11:09:47;;;;;;;0.05;0.05;;;-2.10;79.20;;;;;;4988704;28;20030;-65
2024/01/09 11:12:19;;;;;;;0.00;0.00;;;-1.80;78.30;;;;;;4996213;28;20026;-64
2024/01/09 11:14:49;;;;;;;0.00;0.00;;;-1.40;77.60;;;;;;4998710;28;20029;-64
2024/01/09 11:17:16;;;;;;;0.00;0.00;;;-2.40;78.40;;;;;;5002246;28;20794;-65
2024/01/09 11:19:43;;;;;;;0.00;0.00;;;-2.20;80.20;;;;;;4993250;28;20030;-64
2024/01/09 11:22:13;;;;;;;0.28;0.28;;;-2.10;78.70;;;;;;4996476;28;20045;-63
2024/01/09 11:24:38;;;;;;;0.00;0.00;;;-2.30;80.70;;;;;;4991654;28;20044;-63
2024/01/09 11:27:12;;;;;;;0.00;0.00;;;-1.90;81.40;;;;;;4999340;28;20033;-64
2024/01/09 11:29:52;;;;;;;0.00;0.00;;;-1.30;79.80;;;;;;4998016;28;20045;-64
2024/01/09 11:32:25;;;;;;;0.00;0.00;;;-0.70;77.70;;;;;;4997368;28;20133;-64
2024/01/09 11:35:21;;;;;;;0.00;0.00;;;-0.40;77.90;;;;;;4988976;28;20710;-64
2024/01/09 11:37:51;;;;;;;0.00;0.00;;;-0.50;76.00;;;;;;4990237;28;20030;-63
2024/01/09 11:40:19;;;;;;;0.00;0.00;;;-1.50;77.30;;;;;;4994563;28;20365;-63
2024/01/09 11:42:52;;;;;;;0.00;0.00;;;-2.30;78.70;;;;;;4996957;28;20030;-64
2024/01/09 11:45:27;;;;;;;0.00;0.00;;;-2.60;81.70;;;;;;4993271;28;20037;-64
2024/01/09 11:47:53;;;;;;;0.00;0.00;;;-2.90;82.40;;;;;;4997051;28;20022;-63
2024/01/09 11:50:19;;;;;;;0.00;0.00;;;-3.00;83.10;;;;;;4995856;28;20038;-64
2024/01/09 11:52:48;;;;;;;0.00;0.00;;;-3.20;83.60;;;;;;4996619;28;20121;-63
2024/01/09 11:55:14;;;;;;;0.50;0.35;;;-3.00;85.40;;;;;;4996665;28;20042;-64
2024/01/09 11:57:42;;;;;;;0.00;0.00;;;-3.20;85.10;;;;;;4990924;28;20505;-64
2024/01/09 12:00:09;;;;;;;0.13;0.13;;;-3.20;85.40;;;;;;4995282;28;20069;-63
2024/01/09 12:02:38;;;;;;;0.00;0.00;;;-2.90;87.20;;;;;;5000003;28;20022;-63
2024/01/09 12:05:08;;;;;;;0.10;0.10;;;-2.60;86.20;;;;;;4998246;28;20029;-63
2024/01/09 12:07:35;;;;;;;0.00;0.00;;;-2.50;85.80;;;;;;4990341;28;20026;-64
2024/01/09 12:10:02;;;;;;;0.00;0.00;;;-2.10;86.60;;;;;;4994374;28;20146;-64
2024/01/09 12:12:28;;;;;;;0.00;0.00;;;-1.80;84.60;;;;;;4997074;28;20045;-63
2024/01/09 12:14:54;;;;;;;0.13;0.13;;;-1.50;84.00;;;;;;4997577;28;20504;-63
2024/01/09 12:17:23;;;;;;;;;;;-1.40;81.70;;;;;;4998701;28;20025;-63
2024/01/09 12:19:55;;;;;;;0.38;0.38;;;-1.90;83.40;;;;;;4991266;28;19939;-64
2024/01/09 12:22:21;;;;;;;0.00;0.00;;;-1.60;99.90;;;;;;4995061;28;20025;-65
2024/01/09 12:24:53;;;;;;;1.80;1.65;;;-1.30;90.70;;;;;;4999706;28;20448;-64
2024/01/09 12:27:21;;;;;;;0.00;0.00;;;-1.30;88.60;;;;;;4995776;28;20022;-65
2024/01/09 12:29:48;;;;;;;0.00;0.00;;;-1.20;87.90;;;;;;4998891;28;20033;-63
2024/01/09 12:32:15;;;;;;;1.25;1.15;;;-1.00;86.80;;;;;;4996508;28;20022;-63
2024/01/09 12:34:40;;;;;;;;;;;-0.80;84.80;;;;;;4996659;28;20045;-63
2024/01/09 12:37:08;;;;;;;0.00;0.00;;;-1.20;83.80;;;;;;4998117;28;19963;-63
2024/01/09 12:39:35;;;;;;;0.00;0.00;;;-1.60;85.30;;;;;;4997978;28;20542;-66
2024/01/09 12:42:12;;;;;;;0.00;0.00;;;-1.40;85.60;;;;;;4995057;28;20041;-63
2024/01/09 12:44:38;;;;;;;0.00;0.00;;;-1.30;85.20;;;;;;5003002;28;20390;-64
2024/01/09 12:47:08;;;;;;;0.00;0.00;;;-1.30;86.60;;;;;;4995826;28;20585;-64